sensor_id;sensor_type;location;lat;lon;timestamp;P1;durP1;ratioP1;P2;durP2;ratioP2
48647;SDS011;34437;-33.956;151.076;2022-12-07T00:01:31;3.58;;;1.58;;
48647;SDS011;34437;-33.956;151.076;2022-12-07T00:03:57;2.90;;;1.40;;
48647;SDS011;34437;-33.956;151.076;2022-12-07T00:06:27;3.28;;;1.80;;
48647;SDS011;34437;-33.956;151.076;2022-12-07T00:08:49;3.35;;;1.80;;
48647;SDS011;34437;-33.956;151.076;2022-12-07T00:11:14;3.22;;;1.85;;
48647;SDS011;34437;-33.956;151.076;2022-12-07T00:13:39;3.63;;;1.77;;
48647;SDS011;34437;-33.956;151.076;2022-12-07T00:16:02;3.13;;;1.55;;
48647;SDS011;34437;-33.956;151.076;2022-12-07T00:18:28;2.33;;;1.77;;
48647;SDS011;34437;-33.956;151.076;2022-12-07T00:20:51;3.38;;;1.60;;
48647;SDS011;34437;-33.956;151.076;2022-12-07T00:23:13;2.63;;;1.70;;
48647;SDS011;34437;-33.956;151.076;2022-12-07T00:25:36;2.90;;;1.60;;
48647;SDS011;34437;-33.956;151.076;2022-12-07T00:27:58;3.47;;;1.60;;
48647;SDS011;34437;-33.956;151.076;2022-12-07T00:30:21;2.58;;;1.35;;
48647;SDS011;34437;-33.956;151.076;2022-12-07T00:32:44;3.15;;;1.50;;
48647;SDS011;34437;-33.956;151.076;2022-12-07T00:35:07;2.85;;;1.60;;
48647;SDS011;34437;-33.956;151.076;2022-12-07T00:37:30;2.08;;;1.27;;
48647;SDS011;34437;-33.956;151.076;2022-12-07T00:39:52;3.35;;;1.50;;
48647;SDS011;34437;-33.956;151.076;2022-12-07T00:42:15;2.63;;;1.60;;
48647;SDS011;34437;-33.956;151.076;2022-12-07T00:44:37;3.28;;;1.75;;
48647;SDS011;34437;-33.956;151.076;2022-12-07T00:47:00;2.88;;;1.48;;
48647;SDS011;34437;-33.956;151.076;2022-12-07T00:49:22;2.35;;;1.33;;
48647;SDS011;34437;-33.956;151.076;2022-12-07T00:51:45;2.72;;;1.48;;
48647;SDS011;34437;-33.956;151.076;2022-12-07T00:54:10;2.20;;;1.33;;
48647;SDS011;34437;-33.956;151.076;2022-12-07T00:56:32;2.95;;;1.20;;
48647;SDS011;34437;-33.956;151.076;2022-12-07T00:58:59;2.87;;;1.50;;
48647;SDS011;34437;-33.956;151.076;2022-12-07T01:01:24;2.40;;;1.40;;
48647;SDS011;34437;-33.956;151.076;2022-12-07T01:03:49;2.28;;;1.60;;
48647;SDS011;34437;-33.956;151.076;2022-12-07T01:06:15;1.85;;;1.30;;
48647;SDS011;34437;-33.956;151.076;2022-12-07T01:08:39;3.35;;;1.50;;
48647;SDS011;34437;-33.956;151.076;2022-12-07T01:11:06;2.00;;;1.25;;
48647;SDS011;34437;-33.956;151.076;2022-12-07T01:13:30;1.30;;;1.20;;
48647;SDS011;34437;-33.956;151.076;2022-12-07T01:15:55;2.05;;;1.40;;
48647;SDS011;34437;-33.956;151.076;2022-12-07T01:18:21;2.55;;;1.30;;
48647;SDS011;34437;-33.956;151.076;2022-12-07T01:20:44;2.65;;;1.27;;
48647;SDS011;34437;-33.956;151.076;2022-12-07T01:23:17;1.98;;;1.17;;
48647;SDS011;34437;-33.956;151.076;2022-12-07T01:25:40;2.55;;;1.27;;
48647;SDS011;34437;-33.956;151.076;2022-12-07T01:28:02;5.00;;;1.38;;
48647;SDS011;34437;-33.956;151.076;2022-12-07T01:30:25;1.58;;;1.27;;
48647;SDS011;34437;-33.956;151.076;2022-12-07T01:32:48;2.88;;;1.50;;
48647;SDS011;34437;-33.956;151.076;2022-12-07T01:35:10;2.83;;;1.20;;
48647;SDS011;34437;-33.956;151.076;2022-12-07T01:37:36;1.80;;;1.23;;
48647;SDS011;34437;-33.956;151.076;2022-12-07T01:40:00;2.22;;;1.13;;
48647;SDS011;34437;-33.956;151.076;2022-12-07T01:42:22;1.88;;;1.05;;
48647;SDS011;34437;-33.956;151.076;2022-12-07T01:47:48;1.33;;;1.00;;
48647;SDS011;34437;-33.956;151.076;2022-12-07T01:50:14;1.98;;;1.20;;
48647;SDS011;34437;-33.956;151.076;2022-12-07T01:52:37;2.35;;;1.00;;
48647;SDS011;34437;-33.956;151.076;2022-12-07T01:57:25;1.40;;;1.00;;
48647;SDS011;34437;-33.956;151.076;2022-12-07T01:59:49;1.65;;;1.23;;
48647;SDS011;34437;-33.956;151.076;2022-12-07T02:02:29;2.33;;;1.20;;
48647;SDS011;34437;-33.956;151.076;2022-12-07T02:04:55;1.63;;;0.75;;
48647;SDS011;34437;-33.956;151.076;2022-12-07T02:07:18;2.08;;;1.13;;
48647;SDS011;34437;-33.956;151.076;2022-12-07T02:09:43;1.52;;;0.98;;
48647;SDS011;34437;-33.956;151.076;2022-12-07T02:12:05;2.60;;;1.27;;
48647;SDS011;34437;-33.956;151.076;2022-12-07T02:14:28;2.53;;;1.13;;
48647;SDS011;34437;-33.956;151.076;2022-12-07T02:19:48;1.35;;;0.90;;
48647;SDS011;34437;-33.956;151.076;2022-12-07T02:25:26;1.77;;;1.02;;
48647;SDS011;34437;-33.956;151.076;2022-12-07T02:28:27;2.03;;;0.82;;
48647;SDS011;34437;-33.956;151.076;2022-12-07T02:30:55;1.88;;;1.08;;
48647;SDS011;34437;-33.956;151.076;2022-12-07T02:33:24;1.55;;;0.93;;
48647;SDS011;34437;-33.956;151.076;2022-12-07T02:36:10;1.10;;;0.90;;
48647;SDS011;34437;-33.956;151.076;2022-12-07T02:43:50;1.20;;;0.85;;
48647;SDS011;34437;-33.956;151.076;2022-12-07T02:46:27;1.17;;;0.90;;
48647;SDS011;34437;-33.956;151.076;2022-12-07T02:49:03;1.48;;;0.80;;
48647;SDS011;34437;-33.956;151.076;2022-12-07T02:51:29;2.72;;;0.93;;
48647;SDS011;34437;-33.956;151.076;2022-12-07T02:53:52;1.58;;;0.90;;
48647;SDS011;34437;-33.956;151.076;2022-12-07T03:03:53;1.40;;;0.90;;
48647;SDS011;34437;-33.956;151.076;2022-12-07T03:06:31;1.30;;;1.00;;
48647;SDS011;34437;-33.956;151.076;2022-12-07T03:09:15;0.77;;;0.57;;
48647;SDS011;34437;-33.956;151.076;2022-12-07T03:11:49;1.20;;;0.80;;
48647;SDS011;34437;-33.956;151.076;2022-12-07T03:14:31;3.50;;;1.00;;
48647;SDS011;34437;-33.956;151.076;2022-12-07T03:17:10;1.67;;;0.88;;
48647;SDS011;34437;-33.956;151.076;2022-12-07T03:19:40;2.20;;;1.00;;
48647;SDS011;34437;-33.956;151.076;2022-12-07T03:22:07;1.38;;;0.90;;
48647;SDS011;34437;-33.956;151.076;2022-12-07T03:24:34;2.45;;;0.73;;
48647;SDS011;34437;-33.956;151.076;2022-12-07T03:27:16;0.82;;;0.63;;
48647;SDS011;34437;-33.956;151.076;2022-12-07T03:29:42;1.33;;;0.70;;
48647;SDS011;34437;-33.956;151.076;2022-12-07T03:34:56;0.88;;;0.70;;
48647;SDS011;34437;-33.956;151.076;2022-12-07T03:37:34;2.70;;;0.90;;
48647;SDS011;34437;-33.956;151.076;2022-12-07T03:42:46;2.03;;;0.90;;
48647;SDS011;34437;-33.956;151.076;2022-12-07T03:45:09;0.88;;;0.50;;
48647;SDS011;34437;-33.956;151.076;2022-12-07T03:47:53;0.95;;;0.60;;
48647;SDS011;34437;-33.956;151.076;2022-12-07T03:50:31;1.95;;;0.68;;
48647;SDS011;34437;-33.956;151.076;2022-12-07T03:53:29;2.33;;;0.70;;
48647;SDS011;34437;-33.956;151.076;2022-12-07T03:56:01;1.80;;;0.88;;
48647;SDS011;34437;-33.956;151.076;2022-12-07T03:58:24;3.03;;;0.70;;
48647;SDS011;34437;-33.956;151.076;2022-12-07T04:03:10;1.95;;;0.95;;
48647;SDS011;34437;-33.956;151.076;2022-12-07T04:05:33;1.45;;;0.80;;
48647;SDS011;34437;-33.956;151.076;2022-12-07T04:07:56;1.08;;;0.70;;
48647;SDS011;34437;-33.956;151.076;2022-12-07T04:10:18;1.77;;;0.80;;
48647;SDS011;34437;-33.956;151.076;2022-12-07T04:12:41;0.95;;;0.68;;
48647;SDS011;34437;-33.956;151.076;2022-12-07T04:15:04;1.20;;;0.63;;
48647;SDS011;34437;-33.956;151.076;2022-12-07T04:17:27;1.20;;;0.68;;
48647;SDS011;34437;-33.956;151.076;2022-12-07T04:19:50;1.80;;;0.90;;
48647;SDS011;34437;-33.956;151.076;2022-12-07T04:22:12;0.50;;;0.50;;
48647;SDS011;34437;-33.956;151.076;2022-12-07T04:24:35;1.17;;;0.80;;
48647;SDS011;34437;-33.956;151.076;2022-12-07T04:26:57;2.17;;;1.20;;
48647;SDS011;34437;-33.956;151.076;2022-12-07T04:29:20;1.00;;;0.88;;
48647;SDS011;34437;-33.956;151.076;2022-12-07T04:31:43;1.27;;;0.70;;
48647;SDS011;34437;-33.956;151.076;2022-12-07T04:34:06;1.77;;;0.75;;
48647;SDS011;34437;-33.956;151.076;2022-12-07T04:36:29;1.83;;;0.87;;
48647;SDS011;34437;-33.956;151.076;2022-12-07T04:38:55;2.45;;;1.00;;
48647;SDS011;34437;-33.956;151.076;2022-12-07T04:41:18;1.73;;;1.00;;
48647;SDS011;34437;-33.956;151.076;2022-12-07T04:43:47;1.77;;;0.70;;
48647;SDS011;34437;-33.956;151.076;2022-12-07T04:46:10;1.75;;;0.60;;
48647;SDS011;34437;-33.956;151.076;2022-12-07T04:48:32;1.15;;;0.50;;
48647;SDS011;34437;-33.956;151.076;2022-12-07T04:50:55;2.35;;;0.82;;
48647;SDS011;34437;-33.956;151.076;2022-12-07T04:53:18;0.93;;;0.65;;
48647;SDS011;34437;-33.956;151.076;2022-12-07T04:55:41;1.23;;;0.70;;
48647;SDS011;34437;-33.956;151.076;2022-12-07T04:58:03;1.15;;;0.68;;
48647;SDS011;34437;-33.956;151.076;2022-12-07T05:00:26;2.95;;;0.90;;
48647;SDS011;34437;-33.956;151.076;2022-12-07T05:02:48;1.23;;;0.65;;
48647;SDS011;34437;-33.956;151.076;2022-12-07T05:05:11;1.30;;;0.68;;
48647;SDS011;34437;-33.956;151.076;2022-12-07T05:07:33;1.45;;;0.65;;
48647;SDS011;34437;-33.956;151.076;2022-12-07T05:09:56;1.10;;;0.50;;
48647;SDS011;34437;-33.956;151.076;2022-12-07T05:12:18;0.77;;;0.50;;
48647;SDS011;34437;-33.956;151.076;2022-12-07T05:14:41;1.35;;;0.60;;
48647;SDS011;34437;-33.956;151.076;2022-12-07T05:17:04;1.73;;;0.93;;
48647;SDS011;34437;-33.956;151.076;2022-12-07T05:19:26;0.95;;;0.63;;
48647;SDS011;34437;-33.956;151.076;2022-12-07T05:21:49;3.92;;;0.52;;
48647;SDS011;34437;-33.956;151.076;2022-12-07T05:24:12;0.85;;;0.45;;
48647;SDS011;34437;-33.956;151.076;2022-12-07T05:26:36;1.20;;;0.65;;
48647;SDS011;34437;-33.956;151.076;2022-12-07T05:28:58;1.42;;;0.85;;
48647;SDS011;34437;-33.956;151.076;2022-12-07T05:31:22;0.52;;;0.50;;
48647;SDS011;34437;-33.956;151.076;2022-12-07T05:33:46;1.13;;;0.70;;
48647;SDS011;34437;-33.956;151.076;2022-12-07T05:36:09;2.00;;;0.57;;
48647;SDS011;34437;-33.956;151.076;2022-12-07T05:38:31;0.70;;;0.40;;
48647;SDS011;34437;-33.956;151.076;2022-12-07T05:40:54;1.50;;;0.60;;
48647;SDS011;34437;-33.956;151.076;2022-12-07T05:43:16;0.63;;;0.50;;
48647;SDS011;34437;-33.956;151.076;2022-12-07T05:45:39;1.15;;;0.60;;
48647;SDS011;34437;-33.956;151.076;2022-12-07T05:48:02;1.67;;;0.60;;
48647;SDS011;34437;-33.956;151.076;2022-12-07T05:50:25;1.30;;;0.50;;
48647;SDS011;34437;-33.956;151.076;2022-12-07T05:52:48;0.80;;;0.57;;
48647;SDS011;34437;-33.956;151.076;2022-12-07T05:55:11;1.20;;;0.80;;
48647;SDS011;34437;-33.956;151.076;2022-12-07T05:57:33;1.63;;;0.68;;
48647;SDS011;34437;-33.956;151.076;2022-12-07T05:59:56;0.73;;;0.45;;
48647;SDS011;34437;-33.956;151.076;2022-12-07T06:02:18;0.90;;;0.40;;
48647;SDS011;34437;-33.956;151.076;2022-12-07T06:04:42;1.25;;;0.55;;
48647;SDS011;34437;-33.956;151.076;2022-12-07T06:07:06;0.68;;;0.30;;
48647;SDS011;34437;-33.956;151.076;2022-12-07T06:09:29;0.55;;;0.30;;
48647;SDS011;34437;-33.956;151.076;2022-12-07T06:11:53;1.20;;;0.68;;
48647;SDS011;34437;-33.956;151.076;2022-12-07T06:14:34;2.58;;;0.77;;
48647;SDS011;34437;-33.956;151.076;2022-12-07T06:16:57;2.03;;;0.50;;
48647;SDS011;34437;-33.956;151.076;2022-12-07T06:19:20;0.82;;;0.60;;
48647;SDS011;34437;-33.956;151.076;2022-12-07T06:21:43;1.30;;;0.70;;
48647;SDS011;34437;-33.956;151.076;2022-12-07T06:24:05;1.55;;;0.52;;
48647;SDS011;34437;-33.956;151.076;2022-12-07T06:26:28;0.43;;;0.43;;
48647;SDS011;34437;-33.956;151.076;2022-12-07T06:28:51;1.00;;;0.47;;
48647;SDS011;34437;-33.956;151.076;2022-12-07T06:31:13;0.65;;;0.50;;
48647;SDS011;34437;-33.956;151.076;2022-12-07T06:33:36;1.15;;;0.68;;
48647;SDS011;34437;-33.956;151.076;2022-12-07T06:35:58;1.35;;;0.47;;
48647;SDS011;34437;-33.956;151.076;2022-12-07T06:38:21;0.98;;;0.40;;
48647;SDS011;34437;-33.956;151.076;2022-12-07T06:40:43;0.68;;;0.57;;
48647;SDS011;34437;-33.956;151.076;2022-12-07T06:43:06;0.85;;;0.40;;
48647;SDS011;34437;-33.956;151.076;2022-12-07T06:45:28;0.43;;;0.40;;
48647;SDS011;34437;-33.956;151.076;2022-12-07T06:47:51;0.50;;;0.43;;
48647;SDS011;34437;-33.956;151.076;2022-12-07T06:50:13;1.05;;;0.70;;
48647;SDS011;34437;-33.956;151.076;2022-12-07T06:52:36;0.70;;;0.52;;
48647;SDS011;34437;-33.956;151.076;2022-12-07T06:54:59;1.08;;;0.50;;
48647;SDS011;34437;-33.956;151.076;2022-12-07T06:57:21;0.57;;;0.40;;
48647;SDS011;34437;-33.956;151.076;2022-12-07T06:59:44;1.98;;;0.93;;
48647;SDS011;34437;-33.956;151.076;2022-12-07T07:02:07;4.47;;;0.60;;
48647;SDS011;34437;-33.956;151.076;2022-12-07T07:04:30;3.53;;;0.70;;
48647;SDS011;34437;-33.956;151.076;2022-12-07T07:06:52;1.23;;;0.50;;
48647;SDS011;34437;-33.956;151.076;2022-12-07T07:09:15;0.85;;;0.55;;
48647;SDS011;34437;-33.956;151.076;2022-12-07T07:11:37;2.78;;;0.80;;
48647;SDS011;34437;-33.956;151.076;2022-12-07T07:14:00;2.08;;;0.65;;
48647;SDS011;34437;-33.956;151.076;2022-12-07T07:16:23;0.60;;;0.60;;
48647;SDS011;34437;-33.956;151.076;2022-12-07T07:18:45;1.10;;;0.70;;
48647;SDS011;34437;-33.956;151.076;2022-12-07T07:21:08;1.10;;;0.63;;
48647;SDS011;34437;-33.956;151.076;2022-12-07T07:23:31;2.00;;;1.08;;
48647;SDS011;34437;-33.956;151.076;2022-12-07T07:25:53;0.77;;;0.60;;
48647;SDS011;34437;-33.956;151.076;2022-12-07T07:28:16;1.63;;;0.80;;
48647;SDS011;34437;-33.956;151.076;2022-12-07T07:30:38;2.05;;;1.20;;
48647;SDS011;34437;-33.956;151.076;2022-12-07T07:33:02;3.00;;;0.82;;
48647;SDS011;34437;-33.956;151.076;2022-12-07T07:35:25;1.90;;;1.10;;
48647;SDS011;34437;-33.956;151.076;2022-12-07T07:37:48;1.50;;;0.90;;
48647;SDS011;34437;-33.956;151.076;2022-12-07T07:40:11;2.28;;;1.10;;
48647;SDS011;34437;-33.956;151.076;2022-12-07T07:42:34;4.97;;;1.20;;
48647;SDS011;34437;-33.956;151.076;2022-12-07T07:44:57;2.63;;;0.60;;
48647;SDS011;34437;-33.956;151.076;2022-12-07T07:47:19;1.35;;;0.90;;
48647;SDS011;34437;-33.956;151.076;2022-12-07T07:49:42;2.80;;;0.80;;
48647;SDS011;34437;-33.956;151.076;2022-12-07T07:52:05;4.22;;;0.90;;
48647;SDS011;34437;-33.956;151.076;2022-12-07T07:54:28;34.40;;;3.92;;
48647;SDS011;34437;-33.956;151.076;2022-12-07T07:56:51;80.22;;;6.00;;
48647;SDS011;34437;-33.956;151.076;2022-12-07T07:59:14;41.72;;;4.47;;
48647;SDS011;34437;-33.956;151.076;2022-12-07T08:01:37;32.93;;;3.00;;
48647;SDS011;34437;-33.956;151.076;2022-12-07T08:03:59;39.25;;;3.95;;
48647;SDS011;34437;-33.956;151.076;2022-12-07T08:06:22;28.90;;;3.38;;
48647;SDS011;34437;-33.956;151.076;2022-12-07T08:08:44;11.85;;;1.77;;
48647;SDS011;34437;-33.956;151.076;2022-12-07T08:11:08;11.32;;;1.88;;
48647;SDS011;34437;-33.956;151.076;2022-12-07T08:13:31;17.83;;;1.60;;
48647;SDS011;34437;-33.956;151.076;2022-12-07T08:15:53;8.45;;;1.73;;
48647;SDS011;34437;-33.956;151.076;2022-12-07T08:18:16;5.47;;;1.70;;
48647;SDS011;34437;-33.956;151.076;2022-12-07T08:20:39;7.05;;;2.15;;
48647;SDS011;34437;-33.956;151.076;2022-12-07T08:23:03;9.02;;;4.45;;
48647;SDS011;34437;-33.956;151.076;2022-12-07T08:25:26;17.70;;;8.05;;
48647;SDS011;34437;-33.956;151.076;2022-12-07T08:27:49;17.50;;;7.50;;
48647;SDS011;34437;-33.956;151.076;2022-12-07T08:30:12;15.85;;;7.15;;
48647;SDS011;34437;-33.956;151.076;2022-12-07T08:32:35;12.23;;;6.43;;
48647;SDS011;34437;-33.956;151.076;2022-12-07T08:34:58;11.07;;;6.00;;
48647;SDS011;34437;-33.956;151.076;2022-12-07T08:37:20;9.77;;;5.47;;
48647;SDS011;34437;-33.956;151.076;2022-12-07T08:39:43;7.45;;;5.05;;
48647;SDS011;34437;-33.956;151.076;2022-12-07T08:42:05;7.60;;;4.30;;
48647;SDS011;34437;-33.956;151.076;2022-12-07T08:44:28;10.05;;;6.40;;
48647;SDS011;34437;-33.956;151.076;2022-12-07T08:46:54;12.73;;;7.88;;
48647;SDS011;34437;-33.956;151.076;2022-12-07T08:49:22;12.30;;;8.88;;
48647;SDS011;34437;-33.956;151.076;2022-12-07T08:51:49;11.73;;;7.40;;
48647;SDS011;34437;-33.956;151.076;2022-12-07T08:54:13;12.30;;;6.78;;
48647;SDS011;34437;-33.956;151.076;2022-12-07T08:56:38;12.13;;;6.72;;
48647;SDS011;34437;-33.956;151.076;2022-12-07T08:59:02;9.02;;;6.05;;
48647;SDS011;34437;-33.956;151.076;2022-12-07T09:03:47;6.80;;;4.38;;
48647;SDS011;34437;-33.956;151.076;2022-12-07T09:06:10;7.07;;;4.25;;
48647;SDS011;34437;-33.956;151.076;2022-12-07T09:08:34;5.47;;;3.55;;
48647;SDS011;34437;-33.956;151.076;2022-12-07T09:11:03;6.65;;;3.15;;
48647;SDS011;34437;-33.956;151.076;2022-12-07T09:13:26;5.88;;;3.33;;
48647;SDS011;34437;-33.956;151.076;2022-12-07T09:15:48;4.40;;;2.80;;
48647;SDS011;34437;-33.956;151.076;2022-12-07T09:18:11;4.28;;;2.88;;
48647;SDS011;34437;-33.956;151.076;2022-12-07T09:20:33;8.32;;;3.20;;
48647;SDS011;34437;-33.956;151.076;2022-12-07T09:22:56;9.95;;;2.60;;
48647;SDS011;34437;-33.956;151.076;2022-12-07T09:25:18;14.23;;;2.78;;
48647;SDS011;34437;-33.956;151.076;2022-12-07T09:27:41;9.23;;;2.45;;
48647;SDS011;34437;-33.956;151.076;2022-12-07T09:30:04;11.75;;;2.75;;
48647;SDS011;34437;-33.956;151.076;2022-12-07T09:32:29;8.88;;;2.28;;
48647;SDS011;34437;-33.956;151.076;2022-12-07T09:37:13;8.70;;;2.20;;
48647;SDS011;34437;-33.956;151.076;2022-12-07T09:39:39;12.45;;;1.98;;
48647;SDS011;34437;-33.956;151.076;2022-12-07T09:42:03;8.07;;;1.98;;
48647;SDS011;34437;-33.956;151.076;2022-12-07T09:44:26;8.38;;;2.08;;
48647;SDS011;34437;-33.956;151.076;2022-12-07T09:46:49;11.43;;;2.50;;
48647;SDS011;34437;-33.956;151.076;2022-12-07T09:49:17;17.02;;;1.70;;
48647;SDS011;34437;-33.956;151.076;2022-12-07T09:51:41;9.52;;;1.40;;
48647;SDS011;34437;-33.956;151.076;2022-12-07T09:54:04;6.73;;;1.73;;
48647;SDS011;34437;-33.956;151.076;2022-12-07T09:56:28;2.92;;;1.30;;
48647;SDS011;34437;-33.956;151.076;2022-12-07T09:58:54;5.70;;;1.27;;
48647;SDS011;34437;-33.956;151.076;2022-12-07T10:01:23;3.47;;;1.00;;
48647;SDS011;34437;-33.956;151.076;2022-12-07T10:03:56;1.77;;;0.90;;
48647;SDS011;34437;-33.956;151.076;2022-12-07T10:06:24;4.10;;;1.02;;
48647;SDS011;34437;-33.956;151.076;2022-12-07T10:08:46;2.42;;;1.00;;
48647;SDS011;34437;-33.956;151.076;2022-12-07T10:11:09;2.25;;;1.13;;
48647;SDS011;34437;-33.956;151.076;2022-12-07T10:13:37;3.13;;;1.00;;
48647;SDS011;34437;-33.956;151.076;2022-12-07T10:16:00;3.22;;;1.10;;
48647;SDS011;34437;-33.956;151.076;2022-12-07T10:18:26;2.05;;;0.80;;
48647;SDS011;34437;-33.956;151.076;2022-12-07T10:23:35;6.28;;;1.20;;
48647;SDS011;34437;-33.956;151.076;2022-12-07T10:25:58;2.25;;;0.90;;
48647;SDS011;34437;-33.956;151.076;2022-12-07T10:28:37;3.97;;;1.00;;
48647;SDS011;34437;-33.956;151.076;2022-12-07T10:31:01;3.30;;;1.13;;
48647;SDS011;34437;-33.956;151.076;2022-12-07T10:33:37;5.05;;;0.93;;
48647;SDS011;34437;-33.956;151.076;2022-12-07T10:36:23;3.80;;;1.08;;
48647;SDS011;34437;-33.956;151.076;2022-12-07T10:38:52;4.55;;;0.75;;
48647;SDS011;34437;-33.956;151.076;2022-12-07T10:41:21;3.63;;;1.05;;
48647;SDS011;34437;-33.956;151.076;2022-12-07T10:43:47;0.95;;;0.60;;
48647;SDS011;34437;-33.956;151.076;2022-12-07T10:49:05;1.15;;;0.73;;
48647;SDS011;34437;-33.956;151.076;2022-12-07T10:51:55;1.73;;;0.93;;
48647;SDS011;34437;-33.956;151.076;2022-12-07T10:59:52;2.03;;;1.20;;
48647;SDS011;34437;-33.956;151.076;2022-12-07T11:36:58;4.97;;;1.35;;
48647;SDS011;34437;-33.956;151.076;2022-12-07T11:39:26;4.93;;;1.60;;
48647;SDS011;34437;-33.956;151.076;2022-12-07T11:42:13;8.23;;;1.50;;
48647;SDS011;34437;-33.956;151.076;2022-12-07T11:47:47;2.08;;;0.80;;
48647;SDS011;34437;-33.956;151.076;2022-12-07T11:52:58;6.72;;;1.20;;
48647;SDS011;34437;-33.956;151.076;2022-12-07T11:58:14;6.05;;;1.05;;
48647;SDS011;34437;-33.956;151.076;2022-12-07T12:06:41;5.28;;;1.05;;
48647;SDS011;34437;-33.956;151.076;2022-12-07T12:19:46;1.85;;;0.77;;
48647;SDS011;34437;-33.956;151.076;2022-12-07T12:22:17;4.43;;;0.95;;
48647;SDS011;34437;-33.956;151.076;2022-12-07T12:24:42;13.45;;;1.35;;
48647;SDS011;34437;-33.956;151.076;2022-12-07T12:27:08;7.40;;;1.23;;
48647;SDS011;34437;-33.956;151.076;2022-12-07T12:29:55;12.27;;;0.82;;
48647;SDS011;34437;-33.956;151.076;2022-12-07T12:32:21;5.07;;;0.95;;
48647;SDS011;34437;-33.956;151.076;2022-12-07T12:42:49;5.18;;;0.80;;
48647;SDS011;34437;-33.956;151.076;2022-12-07T12:48:01;1.38;;;0.70;;
48647;SDS011;34437;-33.956;151.076;2022-12-07T13:00:39;3.92;;;0.90;;
48647;SDS011;34437;-33.956;151.076;2022-12-07T13:03:02;1.65;;;0.60;;
48647;SDS011;34437;-33.956;151.076;2022-12-07T13:05:25;4.35;;;0.95;;
48647;SDS011;34437;-33.956;151.076;2022-12-07T13:10:40;2.58;;;0.68;;
48647;SDS011;34437;-33.956;151.076;2022-12-07T13:15:36;8.32;;;1.38;;
48647;SDS011;34437;-33.956;151.076;2022-12-07T13:18:01;5.38;;;1.33;;
48647;SDS011;34437;-33.956;151.076;2022-12-07T13:20:44;3.67;;;0.85;;
48647;SDS011;34437;-33.956;151.076;2022-12-07T13:23:57;4.47;;;1.10;;
48647;SDS011;34437;-33.956;151.076;2022-12-07T13:33:58;3.80;;;0.90;;
48647;SDS011;34437;-33.956;151.076;2022-12-07T13:36:25;1.90;;;0.80;;
48647;SDS011;34437;-33.956;151.076;2022-12-07T13:38:57;1.38;;;0.70;;
48647;SDS011;34437;-33.956;151.076;2022-12-07T13:41:22;1.90;;;0.57;;
48647;SDS011;34437;-33.956;151.076;2022-12-07T13:46:24;2.10;;;0.55;;
48647;SDS011;34437;-33.956;151.076;2022-12-07T13:49:04;1.38;;;0.60;;
48647;SDS011;34437;-33.956;151.076;2022-12-07T13:51:42;1.48;;;0.70;;
48647;SDS011;34437;-33.956;151.076;2022-12-07T13:54:11;1.50;;;0.63;;
48647;SDS011;34437;-33.956;151.076;2022-12-07T13:56:35;1.73;;;0.70;;
48647;SDS011;34437;-33.956;151.076;2022-12-07T13:59:00;2.83;;;0.43;;
48647;SDS011;34437;-33.956;151.076;2022-12-07T14:01:23;2.03;;;0.68;;
48647;SDS011;34437;-33.956;151.076;2022-12-07T14:03:46;1.15;;;0.60;;
48647;SDS011;34437;-33.956;151.076;2022-12-07T14:06:16;1.77;;;0.40;;
48647;SDS011;34437;-33.956;151.076;2022-12-07T14:08:49;1.30;;;0.43;;
48647;SDS011;34437;-33.956;151.076;2022-12-07T14:11:16;0.80;;;0.50;;
48647;SDS011;34437;-33.956;151.076;2022-12-07T14:18:51;0.95;;;0.55;;
48647;SDS011;34437;-33.956;151.076;2022-12-07T14:21:19;1.77;;;0.87;;
48647;SDS011;34437;-33.956;151.076;2022-12-07T14:24:01;1.27;;;0.80;;
48647;SDS011;34437;-33.956;151.076;2022-12-07T14:26:38;1.38;;;0.60;;
48647;SDS011;34437;-33.956;151.076;2022-12-07T14:31:52;0.77;;;0.63;;
48647;SDS011;34437;-33.956;151.076;2022-12-07T14:34:15;3.92;;;1.08;;
48647;SDS011;34437;-33.956;151.076;2022-12-07T14:36:38;0.75;;;0.60;;
48647;SDS011;34437;-33.956;151.076;2022-12-07T14:39:00;1.75;;;0.63;;
48647;SDS011;34437;-33.956;151.076;2022-12-07T14:41:23;1.85;;;0.52;;
48647;SDS011;34437;-33.956;151.076;2022-12-07T14:44:08;2.47;;;0.70;;
48647;SDS011;34437;-33.956;151.076;2022-12-07T14:46:34;1.15;;;0.63;;
48647;SDS011;34437;-33.956;151.076;2022-12-07T14:48:57;2.88;;;0.95;;
48647;SDS011;34437;-33.956;151.076;2022-12-07T14:51:19;1.67;;;0.63;;
48647;SDS011;34437;-33.956;151.076;2022-12-07T14:53:48;1.20;;;0.70;;
48647;SDS011;34437;-33.956;151.076;2022-12-07T14:56:13;0.50;;;0.47;;
48647;SDS011;34437;-33.956;151.076;2022-12-07T14:58:35;1.35;;;0.60;;
48647;SDS011;34437;-33.956;151.076;2022-12-07T15:00:58;0.98;;;0.70;;
48647;SDS011;34437;-33.956;151.076;2022-12-07T15:03:21;0.50;;;0.40;;
48647;SDS011;34437;-33.956;151.076;2022-12-07T15:05:43;0.45;;;0.43;;
48647;SDS011;34437;-33.956;151.076;2022-12-07T15:08:06;0.77;;;0.50;;
48647;SDS011;34437;-33.956;151.076;2022-12-07T15:10:33;0.88;;;0.50;;
48647;SDS011;34437;-33.956;151.076;2022-12-07T15:12:59;1.17;;;0.40;;
48647;SDS011;34437;-33.956;151.076;2022-12-07T15:15:42;1.48;;;0.60;;
48647;SDS011;34437;-33.956;151.076;2022-12-07T15:18:04;0.88;;;0.50;;
48647;SDS011;34437;-33.956;151.076;2022-12-07T15:20:27;0.52;;;0.38;;
48647;SDS011;34437;-33.956;151.076;2022-12-07T15:22:50;1.00;;;0.50;;
48647;SDS011;34437;-33.956;151.076;2022-12-07T15:25:13;0.90;;;0.65;;
48647;SDS011;34437;-33.956;151.076;2022-12-07T15:27:35;0.90;;;0.50;;
48647;SDS011;34437;-33.956;151.076;2022-12-07T15:29:58;0.95;;;0.70;;
48647;SDS011;34437;-33.956;151.076;2022-12-07T15:32:20;1.48;;;0.50;;
48647;SDS011;34437;-33.956;151.076;2022-12-07T15:34:43;0.57;;;0.50;;
48647;SDS011;34437;-33.956;151.076;2022-12-07T15:37:07;1.48;;;0.50;;
48647;SDS011;34437;-33.956;151.076;2022-12-07T15:39:29;0.50;;;0.50;;
48647;SDS011;34437;-33.956;151.076;2022-12-07T15:41:52;1.17;;;0.40;;
48647;SDS011;34437;-33.956;151.076;2022-12-07T15:44:15;1.33;;;0.52;;
48647;SDS011;34437;-33.956;151.076;2022-12-07T15:46:55;0.77;;;0.50;;
48647;SDS011;34437;-33.956;151.076;2022-12-07T15:49:18;5.53;;;0.98;;
48647;SDS011;34437;-33.956;151.076;2022-12-07T15:51:42;2.83;;;0.80;;
48647;SDS011;34437;-33.956;151.076;2022-12-07T15:54:05;4.90;;;1.15;;
48647;SDS011;34437;-33.956;151.076;2022-12-07T15:56:28;3.80;;;0.93;;
48647;SDS011;34437;-33.956;151.076;2022-12-07T15:58:50;1.75;;;0.75;;
48647;SDS011;34437;-33.956;151.076;2022-12-07T16:01:14;5.78;;;0.80;;
48647;SDS011;34437;-33.956;151.076;2022-12-07T16:03:38;2.20;;;0.75;;
48647;SDS011;34437;-33.956;151.076;2022-12-07T16:06:00;0.57;;;0.40;;
48647;SDS011;34437;-33.956;151.076;2022-12-07T16:08:23;1.13;;;0.55;;
48647;SDS011;34437;-33.956;151.076;2022-12-07T16:10:45;1.58;;;0.57;;
48647;SDS011;34437;-33.956;151.076;2022-12-07T16:13:08;1.73;;;0.70;;
48647;SDS011;34437;-33.956;151.076;2022-12-07T16:15:42;1.13;;;0.70;;
48647;SDS011;34437;-33.956;151.076;2022-12-07T16:18:04;1.25;;;0.65;;
48647;SDS011;34437;-33.956;151.076;2022-12-07T16:20:27;2.50;;;0.60;;
48647;SDS011;34437;-33.956;151.076;2022-12-07T16:22:51;2.20;;;0.50;;
48647;SDS011;34437;-33.956;151.076;2022-12-07T16:25:14;0.63;;;0.50;;
48647;SDS011;34437;-33.956;151.076;2022-12-07T16:27:36;0.98;;;0.57;;
48647;SDS011;34437;-33.956;151.076;2022-12-07T16:30:00;6.65;;;1.00;;
48647;SDS011;34437;-33.956;151.076;2022-12-07T16:32:22;0.70;;;0.47;;